METAR Data
IDs: Format: Raw Decoded Include TAF

Data at: 1928 UTC 02 Oct 2022

METAR for:K20V (Kremmling/McElroy Fl, CO, US)
Text:K20V 021914Z AUTO 26012G15KT 10SM CLR 15/06 A3032 RMK AO2
Temperature: 15.0°C ( 59°F)
Dewpoint: 6.0°C ( 43°F) [RH = 55%]
Pressure (altimeter):30.32 inches Hg (1026.8 mb)
Winds:from the W (260 degrees) at 14 MPH (12 knots; 6.2 m/s) gusting to 17 MPH (15 knots; 7.7 m/s)
Visibility:10 or more sm (16+ km)
Ceiling:at least 12,000 feet AGL
Clouds:sky clear below 12,000 feet AGL
QC Flag:automated observation with no human augmentation